sensor_id;sensor_type;location;lat;lon;timestamp;pressure;altitude;pressure_sealevel;temperature;humidity
69780;BME280;57052;55.602;38.096;2022-12-19T00:02:09;101444.38;;;-7.61;67.66
69780;BME280;57052;55.602;38.096;2022-12-19T00:04:34;101441.88;;;-7.63;67.49
69780;BME280;57052;55.602;38.096;2022-12-19T00:07:00;101447.84;;;-7.61;67.74
69780;BME280;57052;55.602;38.096;2022-12-19T00:09:26;101437.31;;;-7.61;67.27
69780;BME280;57052;55.602;38.096;2022-12-19T00:11:52;101456.44;;;-7.59;67.93
69780;BME280;57052;55.602;38.096;2022-12-19T00:14:18;101448.69;;;-7.60;67.36
69780;BME280;57052;55.602;38.096;2022-12-19T00:16:44;101447.25;;;-7.64;67.14
69780;BME280;57052;55.602;38.096;2022-12-19T00:19:10;101460.50;;;-7.66;67.92
69780;BME280;57052;55.602;38.096;2022-12-19T00:21:37;101452.88;;;-7.69;67.72
69780;BME280;57052;55.602;38.096;2022-12-19T00:24:04;101456.56;;;-7.71;67.18
69780;BME280;57052;55.602;38.096;2022-12-19T00:26:32;101456.56;;;-7.71;67.62
69780;BME280;57052;55.602;38.096;2022-12-19T00:29:06;101465.53;;;-7.63;68.06
69780;BME280;57052;55.602;38.096;2022-12-19T00:31:33;101467.78;;;-7.58;67.60
69780;BME280;57052;55.602;38.096;2022-12-19T00:34:00;101478.53;;;-7.61;67.71
69780;BME280;57052;55.602;38.096;2022-12-19T00:36:28;101470.09;;;-7.76;67.60
69780;BME280;57052;55.602;38.096;2022-12-19T00:38:56;101469.97;;;-7.74;67.52
69780;BME280;57052;55.602;38.096;2022-12-19T00:41:27;101467.72;;;-7.79;67.36
69780;BME280;57052;55.602;38.096;2022-12-19T00:43:55;101467.47;;;-7.76;68.39
69780;BME280;57052;55.602;38.096;2022-12-19T00:46:22;101468.66;;;-7.80;68.39
69780;BME280;57052;55.602;38.096;2022-12-19T00:48:47;101467.34;;;-7.86;68.08
69780;BME280;57052;55.602;38.096;2022-12-19T00:51:18;101472.25;;;-7.81;67.49
69780;BME280;57052;55.602;38.096;2022-12-19T00:53:46;101481.94;;;-7.82;68.10
69780;BME280;57052;55.602;38.096;2022-12-19T00:56:15;101482.88;;;-7.83;68.25
69780;BME280;57052;55.602;38.096;2022-12-19T00:58:41;101484.19;;;-7.88;68.40
69780;BME280;57052;55.602;38.096;2022-12-19T01:03:40;101473.81;;;-8.01;68.17
69780;BME280;57052;55.602;38.096;2022-12-19T01:06:06;101489.34;;;-7.98;68.68
69780;BME280;57052;55.602;38.096;2022-12-19T01:08:32;101487.19;;;-7.93;68.73
69780;BME280;57052;55.602;38.096;2022-12-19T01:10:58;101494.00;;;-7.79;68.73
69780;BME280;57052;55.602;38.096;2022-12-19T01:13:27;101492.94;;;-7.76;68.25
69780;BME280;57052;55.602;38.096;2022-12-19T01:15:53;101494.72;;;-7.77;68.03
69780;BME280;57052;55.602;38.096;2022-12-19T01:18:18;101490.63;;;-7.70;68.60
69780;BME280;57052;55.602;38.096;2022-12-19T01:20:44;101468.06;;;-7.84;68.43
69780;BME280;57052;55.602;38.096;2022-12-19T01:23:16;101468.44;;;-7.77;68.34
69780;BME280;57052;55.602;38.096;2022-12-19T01:25:42;101480.13;;;-7.70;67.81
69780;BME280;57052;55.602;38.096;2022-12-19T01:28:14;101472.09;;;-7.68;68.14
69780;BME280;57052;55.602;38.096;2022-12-19T01:30:40;101477.81;;;-7.52;68.33
69780;BME280;57052;55.602;38.096;2022-12-19T01:33:07;101470.16;;;-7.55;68.44
69780;BME280;57052;55.602;38.096;2022-12-19T01:35:33;101464.31;;;-7.59;68.28
69780;BME280;57052;55.602;38.096;2022-12-19T01:37:59;101468.47;;;-7.45;68.44
69780;BME280;57052;55.602;38.096;2022-12-19T01:40:24;101459.03;;;-7.37;68.53
69780;BME280;57052;55.602;38.096;2022-12-19T01:42:50;101462.22;;;-7.33;68.74
69780;BME280;57052;55.602;38.096;2022-12-19T01:47:49;101462.44;;;-7.25;68.26
69780;BME280;57052;55.602;38.096;2022-12-19T01:50:38;101466.94;;;-7.16;68.59
69780;BME280;57052;55.602;38.096;2022-12-19T01:53:08;101463.22;;;-7.13;68.59
69780;BME280;57052;55.602;38.096;2022-12-19T01:55:37;101470.22;;;-7.03;68.98
69780;BME280;57052;55.602;38.096;2022-12-19T01:58:03;101460.94;;;-7.07;68.42
69780;BME280;57052;55.602;38.096;2022-12-19T02:00:29;101475.13;;;-6.98;68.71
69780;BME280;57052;55.602;38.096;2022-12-19T02:03:05;101463.50;;;-6.96;68.47
69780;BME280;57052;55.602;38.096;2022-12-19T02:05:33;101460.50;;;-6.91;68.34
69780;BME280;57052;55.602;38.096;2022-12-19T02:08:00;101453.19;;;-6.88;69.22
69780;BME280;57052;55.602;38.096;2022-12-19T02:10:26;101458.50;;;-6.78;68.69
69780;BME280;57052;55.602;38.096;2022-12-19T02:12:51;101460.44;;;-6.80;69.27
69780;BME280;57052;55.602;38.096;2022-12-19T02:15:18;101459.84;;;-6.84;69.46
69780;BME280;57052;55.602;38.096;2022-12-19T02:20:38;101476.09;;;-6.79;70.31
69780;BME280;57052;55.602;38.096;2022-12-19T02:23:57;101468.53;;;-6.72;70.33
69780;BME280;57052;55.602;38.096;2022-12-19T02:31:35;101453.19;;;-6.88;70.83
69780;BME280;57052;55.602;38.096;2022-12-19T02:34:30;101471.16;;;-6.72;70.41
69780;BME280;57052;55.602;38.096;2022-12-19T02:37:06;101470.53;;;-6.65;70.36
69780;BME280;57052;55.602;38.096;2022-12-19T02:39:41;101473.34;;;-6.57;69.87
69780;BME280;57052;55.602;38.096;2022-12-19T02:42:14;101472.72;;;-6.49;69.55
69780;BME280;57052;55.602;38.096;2022-12-19T02:44:46;101468.84;;;-6.66;70.57
69780;BME280;57052;55.602;38.096;2022-12-19T02:47:13;101462.28;;;-6.71;70.91
69780;BME280;57052;55.602;38.096;2022-12-19T02:49:39;101472.31;;;-6.65;70.56
69780;BME280;57052;55.602;38.096;2022-12-19T02:55:00;101458.13;;;-6.53;71.14
69780;BME280;57052;55.602;38.096;2022-12-19T03:00:21;101427.09;;;-6.49;71.53
69780;BME280;57052;55.602;38.096;2022-12-19T03:06:03;101418.84;;;-6.35;70.88
69780;BME280;57052;55.602;38.096;2022-12-19T03:11:08;101432.06;;;-6.26;71.85
69780;BME280;57052;55.602;38.096;2022-12-19T03:13:38;101434.16;;;-6.20;71.19
69780;BME280;57052;55.602;38.096;2022-12-19T03:16:08;101413.91;;;-6.29;71.56
69780;BME280;57052;55.602;38.096;2022-12-19T03:18:35;101424.06;;;-6.15;71.36
69780;BME280;57052;55.602;38.096;2022-12-19T03:21:24;101424.25;;;-6.07;72.22
69780;BME280;57052;55.602;38.096;2022-12-19T03:23:53;101414.94;;;-6.01;71.50
69780;BME280;57052;55.602;38.096;2022-12-19T03:26:22;101428.28;;;-5.93;70.86
69780;BME280;57052;55.602;38.096;2022-12-19T03:31:36;101418.75;;;-5.84;70.95
69780;BME280;57052;55.602;38.096;2022-12-19T03:34:09;101400.41;;;-5.96;70.80
69780;BME280;57052;55.602;38.096;2022-12-19T03:36:41;101424.44;;;-5.89;70.57
69780;BME280;57052;55.602;38.096;2022-12-19T03:39:09;101409.03;;;-5.84;70.53
69780;BME280;57052;55.602;38.096;2022-12-19T03:41:37;101379.88;;;-5.92;70.49
69780;BME280;57052;55.602;38.096;2022-12-19T03:44:25;101353.22;;;-6.08;70.45
69780;BME280;57052;55.602;38.096;2022-12-19T03:47:15;101381.84;;;-5.94;70.32
69780;BME280;57052;55.602;38.096;2022-12-19T03:49:43;101400.97;;;-5.82;70.17
69780;BME280;57052;55.602;38.096;2022-12-19T03:52:22;101397.66;;;-5.84;70.20
69780;BME280;57052;55.602;38.096;2022-12-19T03:55:09;101406.69;;;-5.87;70.51
69780;BME280;57052;55.602;38.096;2022-12-19T03:58:01;101379.88;;;-6.02;70.38
69780;BME280;57052;55.602;38.096;2022-12-19T04:00:32;101400.81;;;-5.81;69.96
69780;BME280;57052;55.602;38.096;2022-12-19T04:03:00;101399.28;;;-5.84;69.97
69780;BME280;57052;55.602;38.096;2022-12-19T04:05:27;101407.63;;;-5.78;69.78
69780;BME280;57052;55.602;38.096;2022-12-19T04:07:59;101394.28;;;-5.96;70.05
69780;BME280;57052;55.602;38.096;2022-12-19T04:10:27;101397.50;;;-5.93;69.71
69780;BME280;57052;55.602;38.096;2022-12-19T04:13:06;101379.19;;;-5.94;69.58
69780;BME280;57052;55.602;38.096;2022-12-19T04:16:15;101398.19;;;-5.91;70.06
69780;BME280;57052;55.602;38.096;2022-12-19T04:18:49;101399.59;;;-5.87;69.32
69780;BME280;57052;55.602;38.096;2022-12-19T04:21:26;101391.38;;;-5.93;69.54
69780;BME280;57052;55.602;38.096;2022-12-19T04:24:01;101365.84;;;-6.12;69.75
69780;BME280;57052;55.602;38.096;2022-12-19T04:26:30;101371.97;;;-6.02;69.85
69780;BME280;57052;55.602;38.096;2022-12-19T04:29:00;101389.84;;;-5.96;69.80
69780;BME280;57052;55.602;38.096;2022-12-19T04:31:27;101372.50;;;-5.98;69.91
69780;BME280;57052;55.602;38.096;2022-12-19T04:33:53;101380.72;;;-5.92;69.95
69780;BME280;57052;55.602;38.096;2022-12-19T04:36:18;101371.28;;;-5.94;70.63
69780;BME280;57052;55.602;38.096;2022-12-19T04:38:44;101373.38;;;-5.88;70.14
69780;BME280;57052;55.602;38.096;2022-12-19T04:41:09;101367.66;;;-5.84;70.26
69780;BME280;57052;55.602;38.096;2022-12-19T04:43:35;101369.91;;;-5.79;70.25
69780;BME280;57052;55.602;38.096;2022-12-19T04:46:00;101366.97;;;-5.76;70.07
69780;BME280;57052;55.602;38.096;2022-12-19T04:48:26;101374.75;;;-5.74;69.83
69780;BME280;57052;55.602;38.096;2022-12-19T04:50:52;101363.22;;;-5.73;69.83
69780;BME280;57052;55.602;38.096;2022-12-19T04:53:17;101362.69;;;-5.77;69.69
69780;BME280;57052;55.602;38.096;2022-12-19T04:55:43;101364.47;;;-5.77;69.75
69780;BME280;57052;55.602;38.096;2022-12-19T04:58:09;101359.34;;;-5.79;70.14
69780;BME280;57052;55.602;38.096;2022-12-19T05:00:34;101376.72;;;-5.67;70.00
69780;BME280;57052;55.602;38.096;2022-12-19T05:03:00;101380.03;;;-5.74;70.24
69780;BME280;57052;55.602;38.096;2022-12-19T05:05:26;101382.66;;;-5.74;69.81
69780;BME280;57052;55.602;38.096;2022-12-19T05:07:51;101386.94;;;-5.73;69.91
69780;BME280;57052;55.602;38.096;2022-12-19T05:10:17;101380.56;;;-5.80;70.10
69780;BME280;57052;55.602;38.096;2022-12-19T05:12:42;101371.81;;;-5.81;70.33
69780;BME280;57052;55.602;38.096;2022-12-19T05:15:09;101388.34;;;-5.79;70.42
69780;BME280;57052;55.602;38.096;2022-12-19T05:17:34;101388.06;;;-5.76;70.37
69780;BME280;57052;55.602;38.096;2022-12-19T05:20:00;101389.16;;;-5.78;70.75
69780;BME280;57052;55.602;38.096;2022-12-19T05:22:26;101373.63;;;-5.91;70.46
69780;BME280;57052;55.602;38.096;2022-12-19T05:24:51;101389.16;;;-5.78;70.50
69780;BME280;57052;55.602;38.096;2022-12-19T05:27:17;101383.34;;;-5.82;70.58
69780;BME280;57052;55.602;38.096;2022-12-19T05:29:43;101381.81;;;-5.75;70.83
69780;BME280;57052;55.602;38.096;2022-12-19T05:32:08;101391.53;;;-5.66;70.26
69780;BME280;57052;55.602;38.096;2022-12-19T05:34:34;101389.31;;;-5.70;70.61
69780;BME280;57052;55.602;38.096;2022-12-19T05:37:00;101393.22;;;-5.65;70.42
69780;BME280;57052;55.602;38.096;2022-12-19T05:39:28;101390.31;;;-5.62;70.53
69780;BME280;57052;55.602;38.096;2022-12-19T05:41:53;101367.97;;;-5.67;70.23
69780;BME280;57052;55.602;38.096;2022-12-19T05:44:19;101383.94;;;-5.59;70.66
69780;BME280;57052;55.602;38.096;2022-12-19T05:46:45;101368.22;;;-5.61;70.82
69780;BME280;57052;55.602;38.096;2022-12-19T05:49:10;101373.66;;;-5.53;70.68
69780;BME280;57052;55.602;38.096;2022-12-19T05:51:36;101380.34;;;-5.49;70.95
69780;BME280;57052;55.602;38.096;2022-12-19T05:54:02;101385.47;;;-5.47;70.81
69780;BME280;57052;55.602;38.096;2022-12-19T05:56:28;101378.13;;;-5.44;70.58
69780;BME280;57052;55.602;38.096;2022-12-19T05:58:53;101377.41;;;-5.46;71.05
69780;BME280;57052;55.602;38.096;2022-12-19T06:01:21;101370.91;;;-5.42;71.12
69780;BME280;57052;55.602;38.096;2022-12-19T06:03:48;101369.09;;;-5.41;70.98
69780;BME280;57052;55.602;38.096;2022-12-19T06:06:20;101363.66;;;-5.40;70.96
69780;BME280;57052;55.602;38.096;2022-12-19T06:08:46;101359.22;;;-5.39;70.96
69780;BME280;57052;55.602;38.096;2022-12-19T06:11:13;101356.44;;;-5.38;71.19
69780;BME280;57052;55.602;38.096;2022-12-19T06:13:39;101345.47;;;-5.33;70.93
69780;BME280;57052;55.602;38.096;2022-12-19T06:16:10;101341.31;;;-5.26;70.90
69780;BME280;57052;55.602;38.096;2022-12-19T06:18:37;101336.88;;;-5.35;70.97
69780;BME280;57052;55.602;38.096;2022-12-19T06:21:05;101348.81;;;-5.22;70.77
69780;BME280;57052;55.602;38.096;2022-12-19T06:23:33;101350.59;;;-5.22;70.47
69780;BME280;57052;55.602;38.096;2022-12-19T06:26:01;101351.03;;;-5.27;71.02
69780;BME280;57052;55.602;38.096;2022-12-19T06:28:28;101340.47;;;-5.27;70.92
69780;BME280;57052;55.602;38.096;2022-12-19T06:30:56;101278.28;;;-5.58;71.10
69780;BME280;57052;55.602;38.096;2022-12-19T06:33:22;101332.56;;;-5.27;71.06
69780;BME280;57052;55.602;38.096;2022-12-19T06:35:56;101347.72;;;-5.29;71.38
69780;BME280;57052;55.602;38.096;2022-12-19T06:38:22;101348.81;;;-5.31;71.02
69780;BME280;57052;55.602;38.096;2022-12-19T06:40:47;101369.66;;;-5.18;71.59
69780;BME280;57052;55.602;38.096;2022-12-19T06:43:31;101357.41;;;-5.20;71.23
69780;BME280;57052;55.602;38.096;2022-12-19T06:45:57;101370.44;;;-5.08;71.27
69780;BME280;57052;55.602;38.096;2022-12-19T06:48:22;101377.94;;;-5.13;71.41
69780;BME280;57052;55.602;38.096;2022-12-19T06:50:48;101376.84;;;-5.11;71.31
69780;BME280;57052;55.602;38.096;2022-12-19T06:53:14;101365.75;;;-5.14;71.32
69780;BME280;57052;55.602;38.096;2022-12-19T06:55:39;101378.09;;;-5.05;71.42
69780;BME280;57052;55.602;38.096;2022-12-19T06:58:05;101363.50;;;-5.00;71.45
69780;BME280;57052;55.602;38.096;2022-12-19T07:00:34;101371.13;;;-4.97;71.53
69780;BME280;57052;55.602;38.096;2022-12-19T07:03:00;101371.38;;;-4.90;71.46
69780;BME280;57052;55.602;38.096;2022-12-19T07:05:26;101369.19;;;-4.95;71.46
69780;BME280;57052;55.602;38.096;2022-12-19T07:07:54;101370.69;;;-4.92;71.59
69780;BME280;57052;55.602;38.096;2022-12-19T07:10:19;101370.56;;;-4.91;71.59
69780;BME280;57052;55.602;38.096;2022-12-19T07:12:45;101369.03;;;-4.84;71.41
69780;BME280;57052;55.602;38.096;2022-12-19T07:15:10;101359.44;;;-4.85;71.50
69780;BME280;57052;55.602;38.096;2022-12-19T07:17:36;101370.81;;;-4.75;71.37
69780;BME280;57052;55.602;38.096;2022-12-19T07:20:03;101367.31;;;-4.75;71.43
69780;BME280;57052;55.602;38.096;2022-12-19T07:22:32;101365.78;;;-4.68;71.42
69780;BME280;57052;55.602;38.096;2022-12-19T07:25:00;101366.75;;;-4.69;71.49
69780;BME280;57052;55.602;38.096;2022-12-19T07:27:29;101366.16;;;-4.63;71.59
69780;BME280;57052;55.602;38.096;2022-12-19T07:29:54;101364.78;;;-4.58;71.47
69780;BME280;57052;55.602;38.096;2022-12-19T07:32:20;101362.00;;;-4.56;71.24
69780;BME280;57052;55.602;38.096;2022-12-19T07:34:46;101346.69;;;-4.53;71.06
69780;BME280;57052;55.602;38.096;2022-12-19T07:37:12;101328.75;;;-4.49;71.41
69780;BME280;57052;55.602;38.096;2022-12-19T07:39:38;101324.38;;;-4.40;70.93
69780;BME280;57052;55.602;38.096;2022-12-19T07:42:03;101336.81;;;-4.23;70.92
69780;BME280;57052;55.602;38.096;2022-12-19T07:44:29;101333.75;;;-4.19;70.58
69780;BME280;57052;55.602;38.096;2022-12-19T07:46:55;101337.44;;;-4.12;70.68
69780;BME280;57052;55.602;38.096;2022-12-19T07:49:21;101343.69;;;-4.13;70.64
69780;BME280;57052;55.602;38.096;2022-12-19T07:51:46;101350.06;;;-4.06;70.54
69780;BME280;57052;55.602;38.096;2022-12-19T07:54:12;101344.47;;;-4.03;70.55
69780;BME280;57052;55.602;38.096;2022-12-19T07:56:38;101344.47;;;-4.03;70.54
69780;BME280;57052;55.602;38.096;2022-12-19T07:59:03;101346.75;;;-4.08;70.61
69780;BME280;57052;55.602;38.096;2022-12-19T08:01:29;101357.13;;;-3.97;70.67
69780;BME280;57052;55.602;38.096;2022-12-19T08:03:54;101361.78;;;-3.91;70.50
69780;BME280;57052;55.602;38.096;2022-12-19T08:06:20;101359.59;;;-3.95;70.67
69780;BME280;57052;55.602;38.096;2022-12-19T08:08:46;101376.31;;;-3.95;70.91
69780;BME280;57052;55.602;38.096;2022-12-19T08:11:19;101358.44;;;-4.10;70.94
69780;BME280;57052;55.602;38.096;2022-12-19T08:13:52;101381.44;;;-3.93;70.94
69780;BME280;57052;55.602;38.096;2022-12-19T08:16:18;101379.63;;;-3.93;71.01
69780;BME280;57052;55.602;38.096;2022-12-19T08:18:44;101367.41;;;-3.94;70.67
69780;BME280;57052;55.602;38.096;2022-12-19T08:21:10;101370.81;;;-3.83;70.36
69780;BME280;57052;55.602;38.096;2022-12-19T08:23:36;101335.13;;;-3.97;70.53
69780;BME280;57052;55.602;38.096;2022-12-19T08:26:07;101344.22;;;-3.82;70.98
69780;BME280;57052;55.602;38.096;2022-12-19T08:28:35;101353.75;;;-3.71;70.66
69780;BME280;57052;55.602;38.096;2022-12-19T08:31:09;101347.34;;;-3.69;70.66
69780;BME280;57052;55.602;38.096;2022-12-19T08:33:35;101354.06;;;-3.74;70.62
69780;BME280;57052;55.602;38.096;2022-12-19T08:36:09;101366.69;;;-3.68;70.61
69780;BME280;57052;55.602;38.096;2022-12-19T08:38:36;101353.59;;;-3.70;70.82
69780;BME280;57052;55.602;38.096;2022-12-19T08:41:02;101308.84;;;-3.99;70.67
69780;BME280;57052;55.602;38.096;2022-12-19T08:43:28;101355.94;;;-3.67;70.89
69780;BME280;57052;55.602;38.096;2022-12-19T08:45:55;101331.22;;;-3.75;70.90
69780;BME280;57052;55.602;38.096;2022-12-19T08:48:21;101333.44;;;-3.71;70.78
69780;BME280;57052;55.602;38.096;2022-12-19T08:50:52;101342.56;;;-3.65;71.24
69780;BME280;57052;55.602;38.096;2022-12-19T08:53:19;101324.28;;;-3.76;71.29
69780;BME280;57052;55.602;38.096;2022-12-19T08:55:45;101332.50;;;-3.62;71.17
69780;BME280;57052;55.602;38.096;2022-12-19T08:58:11;101332.34;;;-3.60;70.81
69780;BME280;57052;55.602;38.096;2022-12-19T09:00:37;101336.59;;;-3.50;71.23
69780;BME280;57052;55.602;38.096;2022-12-19T09:03:03;101347.25;;;-3.42;70.80
69780;BME280;57052;55.602;38.096;2022-12-19T09:05:29;101324.19;;;-3.49;70.99
69780;BME280;57052;55.602;38.096;2022-12-19T09:07:54;101334.41;;;-3.37;70.99
69780;BME280;57052;55.602;38.096;2022-12-19T09:10:20;101335.91;;;-3.34;71.10
69780;BME280;57052;55.602;38.096;2022-12-19T09:12:46;101335.38;;;-3.38;70.97
69780;BME280;57052;55.602;38.096;2022-12-19T09:15:11;101337.19;;;-3.38;71.40
69780;BME280;57052;55.602;38.096;2022-12-19T09:17:37;101326.09;;;-3.42;70.97
69780;BME280;57052;55.602;38.096;2022-12-19T09:20:03;101318.06;;;-3.50;71.23
69780;BME280;57052;55.602;38.096;2022-12-19T09:22:29;101328.88;;;-3.43;71.22
69780;BME280;57052;55.602;38.096;2022-12-19T09:24:54;101338.56;;;-3.34;71.27
69780;BME280;57052;55.602;38.096;2022-12-19T09:27:20;101328.66;;;-3.32;71.16
69780;BME280;57052;55.602;38.096;2022-12-19T09:29:46;101319.25;;;-3.27;71.30
69780;BME280;57052;55.602;38.096;2022-12-19T09:32:11;101332.41;;;-3.17;70.94
69780;BME280;57052;55.602;38.096;2022-12-19T09:34:37;101318.56;;;-3.11;71.35
69780;BME280;57052;55.602;38.096;2022-12-19T09:37:03;101327.78;;;-3.15;71.43
69780;BME280;57052;55.602;38.096;2022-12-19T09:39:29;101318.88;;;-3.14;71.55
69780;BME280;57052;55.602;38.096;2022-12-19T09:42:10;101318.47;;;-3.01;71.73
69780;BME280;57052;55.602;38.096;2022-12-19T09:47:30;101326.50;;;-3.11;71.70
69780;BME280;57052;55.602;38.096;2022-12-19T09:49:58;101318.09;;;-3.06;71.58
69780;BME280;57052;55.602;38.096;2022-12-19T09:52:29;101320.56;;;-3.05;71.53
69780;BME280;57052;55.602;38.096;2022-12-19T09:55:20;101320.56;;;-3.05;71.58
69780;BME280;57052;55.602;38.096;2022-12-19T10:00:22;101302.34;;;-3.08;71.08
69780;BME280;57052;55.602;38.096;2022-12-19T10:03:06;101326.25;;;-3.00;71.81
69780;BME280;57052;55.602;38.096;2022-12-19T10:05:41;101307.19;;;-3.03;71.86
69780;BME280;57052;55.602;38.096;2022-12-19T10:08:26;101316.31;;;-2.98;71.71
69780;BME280;57052;55.602;38.096;2022-12-19T10:13:47;101305.03;;;-3.00;72.32
69780;BME280;57052;55.602;38.096;2022-12-19T10:19:06;101303.44;;;-2.93;72.54
69780;BME280;57052;55.602;38.096;2022-12-19T10:26:57;101306.44;;;-2.88;72.21
69780;BME280;57052;55.602;38.096;2022-12-19T10:32:03;101311.50;;;-2.77;72.29
69780;BME280;57052;55.602;38.096;2022-12-19T10:34:32;101322.41;;;-2.80;73.23
69780;BME280;57052;55.602;38.096;2022-12-19T10:37:04;101304.03;;;-2.81;72.04
69780;BME280;57052;55.602;38.096;2022-12-19T10:45:05;101310.88;;;-2.71;72.27
69780;BME280;57052;55.602;38.096;2022-12-19T10:47:34;101318.84;;;-2.63;71.83
69780;BME280;57052;55.602;38.096;2022-12-19T10:49:59;101304.44;;;-2.60;71.79
69780;BME280;57052;55.602;38.096;2022-12-19T10:52:48;101315.63;;;-2.48;72.02
69780;BME280;57052;55.602;38.096;2022-12-19T10:57:59;101306.88;;;-2.41;71.52
69780;BME280;57052;55.602;38.096;2022-12-19T11:00:35;101315.28;;;-2.45;71.92
69780;BME280;57052;55.602;38.096;2022-12-19T11:03:11;101305.03;;;-2.40;71.96
69780;BME280;57052;55.602;38.096;2022-12-19T11:05:47;101310.50;;;-2.42;72.18
69780;BME280;57052;55.602;38.096;2022-12-19T11:08:40;101313.47;;;-2.45;71.94
69780;BME280;57052;55.602;38.096;2022-12-19T11:16:01;101312.88;;;-2.23;72.28
69780;BME280;57052;55.602;38.096;2022-12-19T11:18:42;101316.53;;;-2.24;72.45
69780;BME280;57052;55.602;38.096;2022-12-19T11:21:27;101322.88;;;-2.17;72.67
69780;BME280;57052;55.602;38.096;2022-12-19T11:24:00;101313.28;;;-2.10;71.98
69780;BME280;57052;55.602;38.096;2022-12-19T11:29:23;101311.09;;;-2.14;72.73
69780;BME280;57052;55.602;38.096;2022-12-19T11:31:55;101308.41;;;-2.22;72.58
69780;BME280;57052;55.602;38.096;2022-12-19T11:34:23;101298.31;;;-2.27;72.46
69780;BME280;57052;55.602;38.096;2022-12-19T11:36:59;101326.03;;;-2.13;72.50
69780;BME280;57052;55.602;38.096;2022-12-19T11:39:39;101309.44;;;-2.15;72.59
69780;BME280;57052;55.602;38.096;2022-12-19T11:42:31;101330.03;;;-2.09;72.41
69780;BME280;57052;55.602;38.096;2022-12-19T11:45:19;101340.47;;;-2.08;72.47
69780;BME280;57052;55.602;38.096;2022-12-19T11:47:58;101339.00;;;-2.02;72.49
69780;BME280;57052;55.602;38.096;2022-12-19T11:50:29;101338.31;;;-2.04;71.89
69780;BME280;57052;55.602;38.096;2022-12-19T11:58:10;101334.69;;;-2.03;72.40
69780;BME280;57052;55.602;38.096;2022-12-19T12:00:37;101328.88;;;-2.07;71.93
69780;BME280;57052;55.602;38.096;2022-12-19T12:03:21;101342.50;;;-1.93;72.82
69780;BME280;57052;55.602;38.096;2022-12-19T12:05:51;101345.66;;;-1.90;72.43
69780;BME280;57052;55.602;38.096;2022-12-19T12:08:43;101345.34;;;-1.87;72.58
69780;BME280;57052;55.602;38.096;2022-12-19T12:11:40;101350.50;;;-1.85;72.38
69780;BME280;57052;55.602;38.096;2022-12-19T12:14:23;101342.03;;;-1.81;72.72
69780;BME280;57052;55.602;38.096;2022-12-19T12:17:12;101354.16;;;-1.78;72.06
69780;BME280;57052;55.602;38.096;2022-12-19T12:19:55;101355.47;;;-1.74;72.26
69780;BME280;57052;55.602;38.096;2022-12-19T12:23:07;101358.00;;;-1.73;72.60
69780;BME280;57052;55.602;38.096;2022-12-19T12:31:41;101359.00;;;-1.66;72.71
69780;BME280;57052;55.602;38.096;2022-12-19T12:37:06;101369.63;;;-1.66;72.28
69780;BME280;57052;55.602;38.096;2022-12-19T12:42:56;101370.28;;;-1.64;72.34
69780;BME280;57052;55.602;38.096;2022-12-19T12:45:41;101359.63;;;-1.72;72.64
69780;BME280;57052;55.602;38.096;2022-12-19T12:48:36;101370.94;;;-1.62;72.94
69780;BME280;57052;55.602;38.096;2022-12-19T12:51:07;101372.78;;;-1.54;72.25
69780;BME280;57052;55.602;38.096;2022-12-19T12:53:36;101366.97;;;-1.58;72.19
69780;BME280;57052;55.602;38.096;2022-12-19T12:56:04;101375.94;;;-1.59;71.93
69780;BME280;57052;55.602;38.096;2022-12-19T12:59:03;101385.06;;;-1.53;72.78
69780;BME280;57052;55.602;38.096;2022-12-19T13:01:31;101396.19;;;-1.50;72.26
69780;BME280;57052;55.602;38.096;2022-12-19T13:06:42;101402.47;;;-1.59;72.79
69780;BME280;57052;55.602;38.096;2022-12-19T13:09:27;101409.63;;;-1.51;72.36
69780;BME280;57052;55.602;38.096;2022-12-19T13:12:03;101401.00;;;-1.45;72.17
69780;BME280;57052;55.602;38.096;2022-12-19T13:15:18;101396.19;;;-1.50;72.63
69780;BME280;57052;55.602;38.096;2022-12-19T13:22:40;101389.56;;;-1.46;71.99
69780;BME280;57052;55.602;38.096;2022-12-19T13:30:27;101371.94;;;-1.71;72.60
69780;BME280;57052;55.602;38.096;2022-12-19T13:37:48;101417.63;;;-1.27;72.41
69780;BME280;57052;55.602;38.096;2022-12-19T13:40:27;101423.59;;;-1.25;72.05
69780;BME280;57052;55.602;38.096;2022-12-19T13:46:00;101416.66;;;-1.26;72.77
69780;BME280;57052;55.602;38.096;2022-12-19T13:48:28;101431.09;;;-1.28;72.61
69780;BME280;57052;55.602;38.096;2022-12-19T13:50:55;101419.94;;;-1.32;71.87
69780;BME280;57052;55.602;38.096;2022-12-19T13:53:25;101411.81;;;-1.39;72.48
69780;BME280;57052;55.602;38.096;2022-12-19T13:55:58;101428.41;;;-1.37;72.30
69780;BME280;57052;55.602;38.096;2022-12-19T13:58:26;101437.03;;;-1.35;72.17
69780;BME280;57052;55.602;38.096;2022-12-19T14:00:56;101426.59;;;-1.36;72.96
69780;BME280;57052;55.602;38.096;2022-12-19T14:03:41;101425.25;;;-1.32;72.70
69780;BME280;57052;55.602;38.096;2022-12-19T14:06:10;101435.59;;;-1.21;72.38
69780;BME280;57052;55.602;38.096;2022-12-19T14:08:36;101434.09;;;-1.23;72.40
69780;BME280;57052;55.602;38.096;2022-12-19T14:11:06;101435.25;;;-1.18;72.30
69780;BME280;57052;55.602;38.096;2022-12-19T14:13:41;101418.47;;;-1.26;72.27
69780;BME280;57052;55.602;38.096;2022-12-19T14:16:26;101447.03;;;-1.20;72.99
69780;BME280;57052;55.602;38.096;2022-12-19T14:18:51;101433.41;;;-1.17;72.47
69780;BME280;57052;55.602;38.096;2022-12-19T14:21:22;101430.78;;;-1.09;72.49
69780;BME280;57052;55.602;38.096;2022-12-19T14:24:07;101434.44;;;-1.02;71.81
69780;BME280;57052;55.602;38.096;2022-12-19T14:26:32;101428.94;;;-1.09;72.31
69780;BME280;57052;55.602;38.096;2022-12-19T14:29:08;101436.09;;;-1.09;72.40
69780;BME280;57052;55.602;38.096;2022-12-19T14:31:37;101451.06;;;-1.00;72.15
69780;BME280;57052;55.602;38.096;2022-12-19T14:34:05;101448.53;;;-1.02;72.15
69780;BME280;57052;55.602;38.096;2022-12-19T14:36:35;101445.06;;;-1.10;72.15
69780;BME280;57052;55.602;38.096;2022-12-19T14:39:02;101449.53;;;-1.11;72.62